Time;durP1;ratioP1;P1;durP2;ratioP2;P2;SDS_P1;SDS_P2;PMS_P1;PMS_P2;Temp;Humidity;BMP_temperature;BMP_pressure;BME280_temperature;BME280_humidity;BME280_pressure;Samples;Min_cycle;Max_cycle;Signal;HPM_P1;HPM_P2
2023/03/20 00:03:20;;;;;;;5.43;2.20;;;;;;;10.08;100.00;99976.91;12208083;19;20037;-79
2023/03/20 00:07:22;;;;;;;5.07;2.58;;;;;;;10.13;100.00;99985.28;12207127;19;20365;-79
2023/03/20 00:11:29;;;;;;;5.95;2.65;;;;;;;10.17;100.00;99980.13;12187463;19;20777;-79
2023/03/20 00:15:36;;;;;;;6.70;2.70;;;;;;;10.21;100.00;99984.06;12206735;19;20419;-80
2023/03/20 00:19:38;;;;;;;4.22;2.33;;;;;;;10.25;100.00;99988.84;12209159;19;20036;-81
2023/03/20 00:23:41;;;;;;;5.35;3.15;;;;;;;10.27;100.00;99983.13;12186332;19;20042;-81
2023/03/20 00:27:44;;;;;;;4.55;2.65;;;;;;;10.26;100.00;99993.31;12207885;19;20006;-81
2023/03/20 00:31:45;;;;;;;;;;;;;;;10.22;100.00;100002.25;12226578;19;20014;-80
2023/03/20 00:35:47;;;;;;;4.43;2.50;;;;;;;10.20;100.00;100002.53;12256932;19;19927;-80
2023/03/20 00:39:49;;;;;;;6.03;2.97;;;;;;;10.22;100.00;100005.84;12220291;19;20027;-81
2023/03/20 00:44:06;;;;;;;5.65;3.00;;;;;;;10.24;100.00;100005.63;12189328;19;20046;-81
2023/03/20 00:48:13;;;;;;;4.95;2.90;;;;;;;10.24;100.00;100005.63;12210598;19;20929;-80
2023/03/20 00:52:16;;;;;;;7.18;3.42;;;;;;;10.28;100.00;100004.06;12212059;19;20002;-81
2023/03/20 00:56:32;;;;;;;5.80;3.60;;;;;;;10.28;100.00;100009.59;12193389;19;20948;-80
2023/03/20 01:00:38;;;;;;;6.05;3.50;;;;;;;10.19;100.00;100008.25;12216399;19;20082;-80
2023/03/20 01:04:41;;;;;;;7.53;4.30;;;;;;;10.16;100.00;100014.25;12208263;19;20459;-81
2023/03/20 01:08:42;;;;;;;5.80;3.80;;;;;;;10.17;100.00;100015.91;12186163;19;20128;-80
2023/03/20 01:12:45;;;;;;;8.20;4.55;;;;;;;10.16;100.00;100009.56;12204917;19;20038;-80
2023/03/20 01:16:47;;;;;;;7.80;4.22;;;;;;;10.17;100.00;100005.75;12182481;19;20018;-80
2023/03/20 01:20:51;;;;;;;9.05;4.95;;;;;;;10.11;100.00;100014.13;12205990;19;20006;-80
2023/03/20 01:24:56;;;;;;;8.15;4.80;;;;;;;10.06;100.00;100008.53;12201338;19;20007;-81
2023/03/20 01:28:57;;;;;;;7.70;4.97;;;;;;;10.03;100.00;100013.44;12181532;19;20018;-80
2023/03/20 01:33:05;;;;;;;10.48;5.03;;;;;;;10.09;100.00;100016.31;12202936;19;20014;-81
2023/03/20 01:37:17;;;;;;;11.50;5.07;;;;;;;10.08;100.00;100020.13;12200799;19;20052;-79
2023/03/20 01:41:21;;;;;;;8.05;4.25;;;;;;;10.06;100.00;100020.38;12184225;19;20006;-80
2023/03/20 01:45:30;;;;;;;9.07;6.22;;;;;;;10.06;100.00;100022.28;12194353;19;21298;-81
2023/03/20 01:50:11;;;;;;;8.52;5.78;;;;;;;10.07;100.00;100018.47;12205654;19;20014;-81
2023/03/20 01:54:19;;;;;;;8.05;5.50;;;;;;;10.07;100.00;100018.47;12180454;19;20006;-80
2023/03/20 01:58:35;;;;;;;8.60;5.03;;;;;;;10.06;100.00;100016.78;12205007;19;20007;-81
2023/03/20 02:02:38;;;;;;;9.23;5.53;;;;;;;10.06;100.00;100019.53;12182015;19;20006;-80
2023/03/20 02:06:40;;;;;;;10.68;5.70;;;;;;;10.04;100.00;100020.59;12202192;19;20023;-80
2023/03/20 02:11:17;;;;;;;9.02;5.43;;;;;;;10.06;100.00;100019.53;12182955;19;20385;-81
2023/03/20 02:15:19;;;;;;;7.82;4.78;;;;;;;10.09;100.00;100024.56;12196492;19;20007;-82
2023/03/20 02:20:12;;;;;;;7.30;4.95;;;;;;;10.09;100.00;100021.81;12199611;19;20021;-82
2023/03/20 02:24:20;;;;;;;7.60;4.90;;;;;;;10.07;100.00;100027.53;12171902;19;20027;-81
2023/03/20 02:28:43;;;;;;;9.40;5.50;;;;;;;10.04;100.00;100019.78;12199892;19;20031;-80
2023/03/20 02:33:10;;;;;;;8.18;5.35;;;;;;;10.07;100.00;100030.31;12174253;19;20010;-81
2023/03/20 02:37:51;;;;;;;8.50;5.63;;;;;;;10.04;100.00;100028.88;12196094;19;20007;-81
2023/03/20 02:42:17;;;;;;;9.27;5.25;;;;;;;10.04;100.00;100031.63;12171528;19;20003;-79
2023/03/20 02:46:31;;;;;;;8.07;5.72;;;;;;;10.02;100.00;100036.56;12189125;19;20736;-78
2023/03/20 02:50:51;;;;;;;7.38;4.75;;;;;;;10.02;100.00;100033.78;12175011;19;20042;-81
2023/03/20 02:55:14;;;;;;;8.05;4.03;;;;;;;10.06;100.00;100039.66;12195778;19;20010;-81
2023/03/20 02:59:45;;;;;;;9.23;4.72;;;;;;;10.08;100.00;100034.72;12167944;19;20010;-81
2023/03/20 03:03:56;;;;;;;8.10;4.15;;;;;;;10.09;100.00;100038.34;12193890;19;20139;-81
2023/03/20 03:08:01;;;;;;;7.55;4.15;;;;;;;10.11;100.00;100042.50;12177553;19;20082;-81
2023/03/20 03:12:20;;;;;;;6.97;4.78;;;;;;;10.14;100.00;100043.94;12198223;19;20006;-81
2023/03/20 03:16:28;;;;;;;8.75;4.85;;;;;;;10.13;100.00;100042.28;12193001;19;20195;-81
2023/03/20 03:20:37;;;;;;;8.57;4.93;;;;;;;10.09;100.00;100041.91;12180577;19;20492;-81
2023/03/20 03:24:44;;;;;;;7.95;5.05;;;;;;;10.08;100.00;100045.72;12190919;19;19999;-82
2023/03/20 03:28:53;;;;;;;7.00;4.20;;;;;;;10.13;100.00;100031.25;12190382;19;20460;-82
2023/03/20 03:33:19;;;;;;;9.73;5.38;;;;;;;10.18;100.00;100034.97;12205846;19;20006;-81
2023/03/20 03:37:34;;;;;;;8.30;4.50;;;;;;;10.17;100.00;100032.44;12203397;19;20006;-81
2023/03/20 03:41:46;;;;;;;6.60;4.20;;;;;;;10.19;100.00;100027.53;12184122;19;20030;-81
2023/03/20 03:45:56;;;;;;;10.77;4.60;;;;;;;10.16;100.00;100039.03;12197692;19;20488;-81
2023/03/20 03:50:07;;;;;;;8.90;4.45;;;;;;;10.14;100.00;100044.78;12183461;19;20003;-81
2023/03/20 03:54:17;;;;;;;8.63;4.22;;;;;;;10.14;100.00;100041.19;12199507;19;19999;-80
2023/03/20 03:58:35;;;;;;;8.05;5.07;;;;;;;10.14;100.00;100046.69;12201740;19;20014;-80
2023/03/20 04:02:37;;;;;;;9.77;5.63;;;;;;;10.16;100.00;100053.63;12175951;19;20018;-81
2023/03/20 04:06:38;;;;;;;8.68;4.70;;;;;;;10.20;100.00;100056.72;12199477;19;20011;-80
2023/03/20 04:10:40;;;;;;;10.75;5.95;;;;;;;10.19;100.00;100057.81;12202712;19;20750;-80
2023/03/20 04:14:43;;;;;;;10.53;5.83;;;;;;;10.19;100.00;100057.81;12180726;19;20011;-81
2023/03/20 04:18:46;;;;;;;13.35;6.25;;;;;;;10.22;100.00;100057.34;12200236;19;20098;-81
2023/03/20 04:22:49;;;;;;;11.65;6.00;;;;;;;10.22;100.00;100060.09;12180692;19;20073;-79
2023/03/20 04:26:51;;;;;;;;;;;;;;;10.19;100.00;100052.31;12204484;19;20503;-79
2023/03/20 04:30:55;;;;;;;12.35;6.78;;;;;;;10.23;100.00;100050.75;12199814;19;19910;-79
2023/03/20 04:35:08;;;;;;;11.27;6.15;;;;;;;10.27;100.00;100055.56;12181101;19;20095;-81
2023/03/20 04:39:24;;;;;;;12.95;6.50;;;;;;;10.29;100.00;100060.00;12202385;19;20023;-79
2023/03/20 04:43:26;;;;;;;11.93;6.60;;;;;;;10.32;100.00;100065.00;12200508;19;20333;-79
2023/03/20 04:47:29;;;;;;;13.30;6.88;;;;;;;10.33;100.00;100063.97;12180727;19;20030;-79
2023/03/20 04:51:30;;;;;;;14.83;7.83;;;;;;;10.30;100.00;100073.53;12202419;19;20007;-79
2023/03/20 04:55:32;;;;;;;14.90;7.03;;;;;;;10.33;100.00;100074.97;12199742;19;20019;-79
2023/03/20 04:59:34;;;;;;;16.60;8.63;;;;;;;10.33;100.00;100075.81;12182134;19;20571;-79
2023/03/20 05:03:36;;;;;;;15.50;7.75;;;;;;;10.31;100.00;100086.22;12204966;19;19999;-79
2023/03/20 05:07:38;;;;;;;17.83;7.97;;;;;;;10.32;100.00;100084.28;12208968;19;20006;-79
2023/03/20 05:11:45;;;;;;;17.17;8.77;;;;;;;10.32;100.00;100085.16;12205764;19;20053;-79
2023/03/20 05:16:06;;;;;;;16.70;8.30;;;;;;;10.36;100.00;100088.25;12275157;19;20018;-79
2023/03/20 05:20:14;;;;;;;15.30;8.10;;;;;;;10.39;100.00;100090.53;12247617;19;20489;-79
2023/03/20 05:24:30;;;;;;;15.27;7.28;;;;;;;10.42;100.00;100092.81;12243529;19;20003;-79
2023/03/20 05:28:58;;;;;;;15.07;7.80;;;;;;;10.40;100.00;100084.75;12212353;19;20039;-79
2023/03/20 05:33:19;;;;;;;14.20;8.07;;;;;;;10.40;100.00;100078.41;12248279;19;20020;-79
2023/03/20 05:37:27;;;;;;;16.58;8.23;;;;;;;10.41;100.00;100080.09;12245816;19;20046;-79
2023/03/20 05:41:49;;;;;;;16.70;8.38;;;;;;;10.43;100.00;100076.00;12229185;19;20018;-80
2023/03/20 05:46:15;;;;;;;17.25;8.23;;;;;;;10.47;100.00;100060.69;12244909;19;20011;-81
2023/03/20 05:50:47;;;;;;;16.17;7.67;;;;;;;10.55;100.00;100056.69;12215434;19;20032;-82
2023/03/20 05:55:09;;;;;;;17.52;8.20;;;;;;;10.57;100.00;100065.56;12204578;19;20018;-83
2023/03/20 05:59:30;;;;;;;13.93;7.65;;;;;;;10.61;100.00;100075.00;12145417;19;20014;-83
2023/03/20 06:03:50;;;;;;;15.75;8.40;;;;;;;10.62;100.00;100082.22;12199166;19;20013;-83
2023/03/20 06:08:11;;;;;;;18.08;9.32;;;;;;;10.63;100.00;100091.31;12172984;19;20410;-83
2023/03/20 06:12:13;;;;;;;17.77;9.13;;;;;;;10.58;100.00;100094.78;12196764;19;20006;-82
2023/03/20 06:16:15;;;;;;;18.88;8.93;;;;;;;10.60;100.00;100092.63;12197232;19;20010;-83
2023/03/20 06:20:18;;;;;;;16.83;8.57;;;;;;;10.61;100.00;100098.97;12179029;19;20022;-83
2023/03/20 06:24:19;;;;;;;18.45;8.95;;;;;;;10.59;100.00;100098.38;12197236;19;20006;-81
2023/03/20 06:28:21;;;;;;;20.80;9.10;;;;;;;10.64;100.00;100101.25;12200689;19;20028;-81
2023/03/20 06:32:33;;;;;;;18.05;9.07;;;;;;;10.65;100.00;100105.72;12174816;19;20018;-81
2023/03/20 06:36:37;;;;;;;18.27;8.45;;;;;;;10.69;100.00;100106.88;12198521;19;20079;-81
2023/03/20 06:40:45;;;;;;;16.70;8.30;;;;;;;10.69;100.00;100110.47;12198922;19;20009;-81
2023/03/20 06:44:50;;;;;;;18.58;8.77;;;;;;;10.69;100.00;100117.91;12173660;19;20003;-81
2023/03/20 06:49:12;;;;;;;19.98;9.98;;;;;;;10.62;100.00;100125.44;12193863;19;20011;-79
2023/03/20 06:53:15;;;;;;;15.60;8.40;;;;;;;10.60;100.00;100120.19;12169725;19;20010;-78
2023/03/20 06:57:24;;;;;;;15.95;7.90;;;;;;;10.61;100.00;100127.38;12193679;19;20065;-79
2023/03/20 07:01:28;;;;;;;14.55;7.80;;;;;;;10.59;100.00;100129.56;12197726;19;20074;-82
2023/03/20 07:05:31;;;;;;;13.75;7.93;;;;;;;10.59;100.00;100126.81;12182827;19;20349;-82
2023/03/20 07:09:34;;;;;;;16.63;7.97;;;;;;;10.54;100.00;100126.69;12201891;19;22544;-82
2023/03/20 07:13:39;;;;;;;17.25;8.77;;;;;;;10.53;100.00;100121.41;12201321;19;20007;-81
2023/03/20 07:17:52;;;;;;;;;;;;;;;10.58;100.00;100107.75;12184468;19;20464;-81
2023/03/20 07:21:58;;;;;;;19.42;8.10;;;;;;;10.62;100.00;100114.44;12215054;19;20318;-81
2023/03/20 07:26:00;;;;;;;17.13;8.43;;;;;;;10.58;100.00;100125.09;12190231;19;20015;-79
2023/03/20 07:30:07;;;;;;;17.38;8.70;;;;;;;10.58;100.00;100127.03;12215966;19;20018;-82
2023/03/20 07:34:11;;;;;;;17.73;9.00;;;;;;;10.67;100.00;100128.31;12216908;19;20014;-80
2023/03/20 07:38:14;;;;;;;14.20;7.72;;;;;;;10.74;100.00;100131.81;12194458;19;20015;-80
2023/03/20 07:42:26;;;;;;;18.27;8.38;;;;;;;10.70;100.00;100136.09;12213036;19;20072;-80
2023/03/20 07:46:43;;;;;;;16.00;8.60;;;;;;;10.59;100.00;100140.56;12211082;19;20011;-81
2023/03/20 07:50:45;;;;;;;20.90;10.15;;;;;;;10.55;100.00;100138.53;12194848;19;20006;-80
2023/03/20 07:54:47;;;;;;;12.05;6.22;;;;;;;10.51;100.00;100137.34;12212717;19;21200;-79
2023/03/20 07:58:48;;;;;;;19.80;9.43;;;;;;;10.55;100.00;100138.53;12189399;19;20003;-81
2023/03/20 08:02:52;;;;;;;19.02;8.73;;;;;;;10.50;100.00;100153.06;12215018;19;20037;-80
2023/03/20 08:07:02;;;;;;;20.33;9.68;;;;;;;10.44;100.00;100154.84;12217422;19;20014;-80
2023/03/20 08:11:07;;;;;;;21.60;9.30;;;;;;;10.42;100.00;100161.69;12202087;19;20022;-81
2023/03/20 08:15:09;;;;;;;20.88;10.30;;;;;;;10.46;100.00;100165.63;12217997;19;20342;-80
2023/03/20 08:19:10;;;;;;;24.80;11.63;;;;;;;10.54;100.00;100158.91;12215617;19;20006;-80
2023/03/20 08:23:16;;;;;;;25.42;11.05;;;;;;;10.55;100.00;100152.31;12192355;19;20511;-80
2023/03/20 08:27:21;;;;;;;30.48;12.85;;;;;;;10.64;100.00;100148.09;12213230;19;20024;-80
2023/03/20 08:31:23;;;;;;;28.10;13.67;;;;;;;10.81;100.00;100156.47;12215770;19;20102;-80
2023/03/20 08:35:25;;;;;;;20.47;9.20;;;;;;;11.08;100.00;100165.03;12191315;19;20006;-80
2023/03/20 08:39:35;;;;;;;33.92;14.60;;;;;;;11.15;100.00;100176.75;12214840;19;20078;-81
2023/03/20 08:43:37;;;;;;;35.10;14.87;;;;;;;11.04;100.00;100177.63;12210725;19;20041;-81
2023/03/20 08:47:39;;;;;;;37.37;16.43;;;;;;;10.93;100.00;100179.34;12187803;19;20022;-81
2023/03/20 08:51:41;;;;;;;35.67;15.73;;;;;;;10.85;100.00;100186.06;12211484;19;20007;-80
2023/03/20 08:55:48;;;;;;;37.78;15.93;;;;;;;10.80;100.00;100185.97;12211254;19;20026;-80
2023/03/20 08:59:50;;;;;;;42.50;17.83;;;;;;;10.76;100.00;100189.44;12188007;19;20079;-81
2023/03/20 09:03:52;;;;;;;40.03;17.40;;;;;;;10.73;100.00;100196.25;12206483;19;20289;-80
2023/03/20 09:07:54;;;;;;;33.55;15.63;;;;;;;10.77;100.00;100191.97;12184817;19;20007;-81
2023/03/20 09:11:57;;;;;;;40.10;15.95;;;;;;;10.90;100.00;100188.94;12201932;19;20010;-81
2023/03/20 09:15:59;;;;;;;37.58;16.35;;;;;;;11.09;100.00;100195.09;12202990;19;20723;-81
2023/03/20 09:20:02;;;;;;;41.35;17.73;;;;;;;11.25;100.00;100195.44;12185414;19;20017;-81
2023/03/20 09:24:04;;;;;;;39.17;17.70;;;;;;;11.24;100.00;100202.03;12200579;19;20571;-81
2023/03/20 09:28:08;;;;;;;44.92;18.83;;;;;;;11.24;100.00;100207.53;12201961;19;20010;-82
2023/03/20 09:32:11;;;;;;;36.50;16.33;;;;;;;11.36;100.00;100209.19;12184146;19;20361;-82
2023/03/20 09:36:14;;;;;;;35.00;15.30;;;;;;;11.36;100.00;100211.09;12208076;19;20078;-81
2023/03/20 09:40:51;;;;;;;36.05;14.45;;;;;;;11.32;100.00;100212.69;12208466;19;20022;-83
2023/03/20 09:44:58;;;;;;;32.97;15.20;;;;;;;11.40;100.00;100215.91;12182538;19;20391;-82
2023/03/20 09:49:16;;;;;;;31.25;15.05;;;;;;;11.75;100.00;100225.09;12205543;19;20007;-82
2023/03/20 09:53:36;;;;;;;30.52;14.57;;;;;;;12.19;100.00;100220.66;12208730;19;20468;-83
2023/03/20 09:57:46;;;;;;;35.90;14.98;;;;;;;12.65;100.00;100213.13;12207739;19;19998;-83
2023/03/20 10:01:51;;;;;;;32.78;15.27;;;;;;;13.14;100.00;100210.47;12180341;19;20010;-84
2023/03/20 10:06:01;;;;;;;32.58;15.73;;;;;;;13.58;100.00;100209.63;12205916;19;20014;-83
2023/03/20 10:10:03;;;;;;;33.55;14.85;;;;;;;13.67;100.00;100211.69;12208010;19;20088;-83
2023/03/20 10:14:15;;;;;;;27.00;13.75;;;;;;;13.80;100.00;100204.03;12177400;19;19996;-83
2023/03/20 10:18:26;;;;;;;30.13;13.95;;;;;;;14.24;100.00;100206.66;12204875;19;20002;-83
2023/03/20 10:22:35;;;;;;;28.00;14.07;;;;;;;14.59;100.00;100204.19;12207725;19;20019;-84
2023/03/20 10:26:38;;;;;;;25.33;13.02;;;;;;;14.65;100.00;100202.28;12181632;19;20472;-83
2023/03/20 10:30:43;;;;;;;29.25;14.57;;;;;;;14.65;100.00;100201.47;12208695;19;20018;-83
2023/03/20 10:35:10;;;;;;;25.25;13.25;;;;;;;14.79;100.00;100211.81;12251103;19;20003;-82
2023/03/20 10:39:30;;;;;;;25.20;12.95;;;;;;;14.73;98.10;100206.53;12220438;19;20105;-84
2023/03/20 10:43:35;;;;;;;25.35;12.45;;;;;;;14.84;96.84;100201.84;12212643;19;20422;-84
2023/03/20 10:47:45;;;;;;;18.90;10.50;;;;;;;14.82;96.49;100202.13;12186695;19;20009;-84
2023/03/20 10:51:51;;;;;;;25.17;11.85;;;;;;;14.73;97.27;100198.19;12209032;19;20014;-84
2023/03/20 10:55:57;;;;;;;19.88;11.05;;;;;;;14.81;97.17;100211.53;12191057;19;20006;-83
2023/03/20 10:59:59;;;;;;;20.17;10.95;;;;;;;14.55;97.67;100196.69;12209442;19;20031;-86
2023/03/20 11:04:02;;;;;;;20.52;10.57;;;;;;;14.23;99.24;100205.00;12206978;19;20006;-83
2023/03/20 11:08:11;;;;;;;18.03;9.63;;;;;;;14.29;99.14;100198.41;12184684;19;20665;-84
2023/03/20 11:12:18;;;;;;;20.05;10.18;;;;;;;14.30;98.17;100195.34;12208454;19;20268;-83
2023/03/20 11:16:33;;;;;;;19.25;9.90;;;;;;;14.32;98.83;100187.63;12203893;19;20018;-84
2023/03/20 11:20:44;;;;;;;20.35;11.50;;;;;;;14.56;98.26;100187.25;12206575;19;20030;-82
2023/03/20 11:24:51;;;;;;;20.73;9.73;;;;;;;15.04;97.35;100182.53;12270058;19;20002;-83
2023/03/20 11:28:58;;;;;;;19.50;10.70;;;;;;;15.66;92.96;100169.69;12240009;19;20014;-84
2023/03/20 11:33:02;;;;;;;20.92;10.77;;;;;;;15.80;90.69;100170.03;12206171;19;20578;-84
2023/03/20 11:37:18;;;;;;;17.55;10.07;;;;;;;15.82;87.90;100174.19;12198420;19;21563;-85
2023/03/20 11:41:25;;;;;;;15.90;9.32;;;;;;;16.06;85.67;100170.88;12180308;19;20003;-85
2023/03/20 11:45:35;;;;;;;15.23;8.50;;;;;;;16.18;83.60;100161.16;12211063;19;20034;-85
2023/03/20 11:49:57;;;;;;;12.98;8.00;;;;;;;16.44;81.56;100165.88;12226004;19;20014;-87
2023/03/20 11:54:06;;;;;;;13.45;7.60;;;;;;;16.92;79.75;100161.59;12196272;19;20023;-87
2023/03/20 11:58:15;;;;;;;12.38;6.78;;;;;;;17.65;75.56;100152.63;12207897;19;20349;-85
2023/03/20 12:02:22;;;;;;;12.75;5.88;;;;;;;17.80;68.40;100151.72;12186609;19;20028;-85
2023/03/20 12:06:26;;;;;;;10.20;5.78;;;;;;;17.42;64.22;100144.97;12215831;19;20006;-82
2023/03/20 12:10:39;;;;;;;11.77;5.68;;;;;;;16.92;65.36;100141.28;12220009;19;20471;-85
2023/03/20 12:14:59;;;;;;;10.18;5.60;;;;;;;16.91;64.58;100125.72;12188440;19;20010;-83
2023/03/20 12:19:10;;;;;;;9.23;5.25;;;;;;;17.49;62.61;100123.16;12225886;19;20030;-84
2023/03/20 12:23:22;;;;;;;10.30;6.20;;;;;;;17.58;60.03;100121.47;12204324;19;20038;-87
2023/03/20 12:27:44;;;;;;;11.10;5.53;;;;;;;17.80;57.58;100104.34;12213168;19;20010;-85
2023/03/20 12:31:55;;;;;;;10.82;6.10;;;;;;;18.07;57.17;100116.94;12207048;19;20016;-83
2023/03/20 12:35:58;;;;;;;10.25;6.50;;;;;;;17.95;57.20;100108.94;12218023;19;20006;-85
2023/03/20 12:40:00;;;;;;;;;;;;;;;17.66;56.21;100101.31;12221487;19;20042;-81
2023/03/20 12:44:07;;;;;;;10.87;6.47;;;;;;;17.58;57.52;100095.53;12207659;19;19944;-83
2023/03/20 12:48:32;;;;;;;12.55;6.28;;;;;;;17.37;56.11;100097.63;12222541;19;20097;-84
2023/03/20 12:53:19;;;;;;;8.57;4.15;;;;;;;17.11;51.00;100094.19;12216095;19;20364;-85
2023/03/20 12:57:37;;;;;;;7.70;4.10;;;;;;;16.97;52.43;100091.16;12116425;19;2004586;-84
2023/03/20 13:02:08;;;;;;;8.07;4.45;;;;;;;16.73;53.51;100090.97;12230047;19;20472;-83
2023/03/20 13:06:28;;;;;;;7.82;3.80;;;;;;;16.76;54.31;100099.59;12192157;19;20026;-84
2023/03/20 13:10:38;;;;;;;9.07;4.07;;;;;;;16.63;54.03;100091.84;12219206;19;20014;-83
2023/03/20 13:14:51;;;;;;;6.55;3.90;;;;;;;16.54;53.61;100090.75;12196062;19;20009;-82
2023/03/20 13:19:02;;;;;;;8.20;4.22;;;;;;;16.58;52.47;100078.75;12218006;19;20030;-82
2023/03/20 13:23:17;;;;;;;8.07;4.75;;;;;;;16.51;49.83;100082.94;12194076;19;20053;-84
2023/03/20 13:27:32;;;;;;;9.05;4.32;;;;;;;16.48;50.46;100081.59;12224956;19;20014;-84
2023/03/20 13:31:49;;;;;;;9.80;5.03;;;;;;;16.24;49.57;100072.16;12210972;19;20013;-83
2023/03/20 13:36:12;;;;;;;7.70;4.53;;;;;;;16.14;52.21;100078.59;12192868;19;20011;-84
2023/03/20 13:40:25;;;;;;;7.65;4.15;;;;;;;16.03;51.69;100071.38;12212854;19;20014;-81
2023/03/20 13:44:29;;;;;;;8.95;5.03;;;;;;;15.72;52.23;100065.84;12190923;19;20102;-83
2023/03/20 13:48:41;;;;;;;8.95;4.43;;;;;;;15.53;52.44;100064.66;12209405;19;20019;-84
2023/03/20 13:52:49;;;;;;;10.30;5.18;;;;;;;15.39;51.20;100062.44;12224089;19;20100;-80
2023/03/20 13:56:58;;;;;;;6.75;4.32;;;;;;;15.50;51.53;100044.69;12197035;19;20538;-84
2023/03/20 14:01:23;;;;;;;7.55;4.13;;;;;;;15.62;50.24;100041.66;12228065;19;20038;-82
2023/03/20 14:05:26;;;;;;;9.35;3.75;;;;;;;15.67;50.47;100046.34;12199635;19;20030;-81
2023/03/20 14:09:32;;;;;;;6.32;3.58;;;;;;;15.95;49.46;100036.66;12213450;19;20014;-82
2023/03/20 14:13:34;;;;;;;10.27;4.68;;;;;;;15.87;47.43;100043.59;12221025;19;20018;-83
2023/03/20 14:17:42;;;;;;;;;;;;;;;16.02;48.52;100036.34;12188212;19;21018;-84
2023/03/20 14:21:46;;;;;;;6.43;3.58;;;;;;;16.04;47.95;100039.69;12231488;19;19940;-83
2023/03/20 14:25:48;;;;;;;6.78;3.22;;;;;;;15.66;45.28;100039.13;12214324;19;20017;-85
2023/03/20 14:29:50;;;;;;;5.32;2.85;;;;;;;15.53;46.03;100028.56;12222502;19;20022;-83
2023/03/20 14:34:12;;;;;;;6.82;3.00;;;;;;;15.75;45.58;100028.34;12210196;19;20042;-84
2023/03/20 14:38:19;;;;;;;6.38;3.33;;;;;;;15.71;45.74;100028.06;12189987;19;20364;-84
2023/03/20 14:42:46;;;;;;;7.38;3.40;;;;;;;15.67;45.82;100038.00;12200420;19;20014;-82
2023/03/20 14:47:20;;;;;;;7.75;3.17;;;;;;;15.75;46.52;100037.50;12185882;19;20022;-84
2023/03/20 14:51:21;;;;;;;8.15;3.00;;;;;;;15.75;45.58;100034.72;12212223;19;20514;-82
2023/03/20 14:55:26;;;;;;;6.03;2.78;;;;;;;15.74;44.21;100029.47;12211751;19;20011;-83
2023/03/20 14:59:31;;;;;;;7.05;3.45;;;;;;;15.43;44.54;100041.34;12193011;19;20019;-84
2023/03/20 15:03:35;;;;;;;4.95;2.38;;;;;;;15.49;44.31;100037.44;12206156;19;20006;-82
2023/03/20 15:07:38;;;;;;;4.95;2.80;;;;;;;15.49;43.58;100039.41;12206733;19;20034;-83
2023/03/20 15:11:42;;;;;;;5.57;2.20;;;;;;;15.72;43.36;100038.88;12188408;19;20030;-84
2023/03/20 15:16:05;;;;;;;4.80;3.05;;;;;;;15.93;43.86;100036.91;12206531;19;20010;-82
2023/03/20 15:20:18;;;;;;;4.13;1.90;;;;;;;16.00;42.71;100035.78;12182520;19;20006;-82
2023/03/20 15:24:23;;;;;;;5.90;2.25;;;;;;;15.92;42.85;100024.16;12217428;19;20007;-84
2023/03/20 15:28:26;;;;;;;5.07;2.65;;;;;;;15.65;41.57;100021.66;12218772;19;20034;-80
2023/03/20 15:32:28;;;;;;;7.70;2.78;;;;;;;15.47;42.85;100034.13;12209290;19;20443;-81
2023/03/20 15:36:35;;;;;;;4.53;2.78;;;;;;;15.43;43.80;100033.00;12259029;19;20007;-87
2023/03/20 15:40:39;;;;;;;7.40;3.22;;;;;;;15.20;44.29;100039.94;12231849;19;20014;-85
2023/03/20 15:44:53;;;;;;;7.10;2.75;;;;;;;14.79;44.57;100048.16;12199825;19;20010;-85
2023/03/20 15:48:54;;;;;;;4.65;3.00;;;;;;;14.52;45.83;100040.00;12216497;19;20021;-84
2023/03/20 15:52:56;;;;;;;7.05;2.40;;;;;;;14.29;44.87;100045.94;12197067;19;20050;-83
2023/03/20 15:57:01;;;;;;;5.50;2.83;;;;;;;14.09;44.88;100036.41;12221240;19;20374;-83
2023/03/20 16:01:06;;;;;;;3.90;1.90;;;;;;;14.03;42.93;100043.00;12219478;19;20003;-83
2023/03/20 16:05:12;;;;;;;3.13;1.85;;;;;;;13.80;42.60;100035.09;12195813;19;20397;-85
2023/03/20 16:09:16;;;;;;;4.57;1.88;;;;;;;13.75;43.88;100037.84;12214635;19;20017;-84
2023/03/20 16:13:18;;;;;;;2.85;1.55;;;;;;;13.65;43.85;100039.44;12215386;19;20066;-84
2023/03/20 16:17:22;;;;;;;5.75;1.90;;;;;;;13.65;44.49;100041.34;12187832;19;20479;-83
2023/03/20 16:21:28;;;;;;;4.60;1.73;;;;;;;13.62;43.56;100042.72;12210882;19;20334;-84
2023/03/20 16:25:29;;;;;;;3.70;1.83;;;;;;;13.41;44.28;100036.19;12210658;19;20027;-81
2023/03/20 16:29:32;;;;;;;5.10;1.90;;;;;;;13.26;45.00;100043.50;12190773;19;20009;-85
2023/03/20 16:33:35;;;;;;;3.60;2.25;;;;;;;13.12;45.46;100043.06;12208892;19;20290;-84
2023/03/20 16:37:45;;;;;;;4.03;2.30;;;;;;;13.03;45.97;100041.84;12208353;19;20002;-85
2023/03/20 16:41:56;;;;;;;5.95;1.95;;;;;;;12.90;46.76;100043.91;12190470;19;20561;-84
2023/03/20 16:46:03;;;;;;;3.38;1.55;;;;;;;12.72;46.84;100042.34;12215521;19;20026;-85
2023/03/20 16:50:13;;;;;;;5.30;1.73;;;;;;;12.67;47.72;100034.00;12228467;19;20020;-80
2023/03/20 16:54:22;;;;;;;4.22;2.10;;;;;;;12.60;48.40;100041.63;12259791;19;20031;-81
2023/03/20 16:58:27;;;;;;;3.92;1.90;;;;;;;12.48;48.41;100057.53;12260710;19;20425;-81
2023/03/20 17:02:36;;;;;;;5.95;2.08;;;;;;;12.41;48.80;100056.88;12238923;19;19994;-81
2023/03/20 17:06:45;;;;;;;6.90;1.80;;;;;;;12.28;49.16;100053.41;12252301;19;20011;-86
2023/03/20 17:10:54;;;;;;;3.67;1.75;;;;;;;12.18;49.73;100058.78;12203267;19;20027;-84
2023/03/20 17:14:56;;;;;;;3.40;1.65;;;;;;;12.13;50.37;100079.94;12218922;19;20014;-86
2023/03/20 17:19:00;;;;;;;3.47;1.58;;;;;;;12.04;50.63;100080.38;12213576;19;20006;-82
2023/03/20 17:23:02;;;;;;;4.82;2.03;;;;;;;11.95;51.48;100070.03;12190164;19;20436;-85
2023/03/20 17:27:05;;;;;;;3.83;2.38;;;;;;;11.94;51.78;100076.63;12220223;19;20014;-85
2023/03/20 17:31:25;;;;;;;5.25;1.73;;;;;;;11.90;52.06;100080.97;12270907;19;20010;-82
2023/03/20 17:35:27;;;;;;;6.07;1.98;;;;;;;11.84;52.53;100080.88;12251332;19;20029;-81
2023/03/20 17:39:29;;;;;;;6.97;2.47;;;;;;;11.78;53.08;100081.88;12242321;19;20102;-84
2023/03/20 17:43:30;;;;;;;6.40;2.05;;;;;;;11.73;53.86;100079.03;12209985;19;20030;-84
2023/03/20 17:47:32;;;;;;;6.72;1.75;;;;;;;11.60;54.26;100090.41;12181130;19;20005;-84
2023/03/20 17:51:34;;;;;;;4.85;2.00;;;;;;;11.55;54.77;100085.63;12203243;19;20298;-84
2023/03/20 17:55:35;;;;;;;3.35;1.67;;;;;;;11.46;55.08;100091.81;12201960;19;20035;-85
2023/03/20 17:59:37;;;;;;;5.18;2.13;;;;;;;11.43;55.56;100089.56;12180926;19;20007;-81
2023/03/20 18:03:39;;;;;;;3.65;1.58;;;;;;;11.42;56.13;100094.22;12202181;19;22266;-84
2023/03/20 18:07:41;;;;;;;5.23;2.40;;;;;;;11.34;56.33;100086.38;12199410;19;20043;-84
2023/03/20 18:11:42;;;;;;;4.00;1.90;;;;;;;11.32;56.86;100102.31;12182297;19;20010;-85
2023/03/20 18:15:46;;;;;;;6.50;2.75;;;;;;;11.26;57.27;100098.63;12201097;19;20034;-83
2023/03/20 18:19:49;;;;;;;6.15;2.22;;;;;;;11.22;57.52;100094.72;12178806;19;20078;-85
2023/03/20 18:23:50;;;;;;;3.97;2.25;;;;;;;11.23;57.76;100096.38;12195289;19;20086;-83
2023/03/20 18:27:55;;;;;;;6.70;2.38;;;;;;;11.24;58.20;100095.28;12200610;19;20006;-82
2023/03/20 18:31:56;;;;;;;6.13;2.28;;;;;;;11.22;58.44;100096.63;12177570;19;20054;-83
2023/03/20 18:35:58;;;;;;;4.43;2.35;;;;;;;11.23;58.89;100099.13;12201500;19;20035;-84
2023/03/20 18:40:00;;;;;;;6.57;2.53;;;;;;;11.20;59.22;100105.13;12206449;19;20480;-84
2023/03/20 18:44:01;;;;;;;5.35;2.25;;;;;;;11.16;59.63;100102.03;12182469;19;20038;-85
2023/03/20 18:48:03;;;;;;;4.88;1.95;;;;;;;11.14;59.72;100093.16;12199526;19;20079;-84
2023/03/20 18:52:05;;;;;;;5.72;2.33;;;;;;;11.11;59.97;100092.84;12205540;19;20512;-84